createdAt,value
2018-07-25T00:00:37.542Z,19.82
2018-07-25T00:03:04.995Z,18.76
2018-07-25T00:05:33.213Z,20.04
2018-07-25T00:08:01.446Z,22.96
2018-07-25T00:10:29.648Z,19.36
2018-07-25T00:12:57.086Z,19.38
2018-07-25T00:15:25.314Z,18.46
2018-07-25T00:17:52.759Z,19.62
2018-07-25T00:20:20.202Z,18.80
2018-07-25T00:22:48.413Z,20.02
2018-07-25T00:25:16.630Z,20.68
2018-07-25T00:27:44.840Z,19.20
2018-07-25T00:30:13.060Z,20.38
2018-07-25T00:32:41.264Z,19.38
2018-07-25T00:35:09.497Z,20.62
2018-07-25T00:37:36.961Z,20.28
2018-07-25T00:40:05.146Z,20.50
2018-07-25T00:42:33.342Z,20.72
2018-07-25T00:45:01.563Z,21.76
2018-07-25T00:47:29.774Z,21.00
2018-07-25T00:49:57.992Z,19.54
2018-07-25T00:52:26.203Z,20.68
2018-07-25T00:54:54.423Z,20.16
2018-07-25T00:57:21.869Z,20.34
2018-07-25T00:59:50.078Z,21.18
2018-07-25T01:02:18.289Z,19.88
2018-07-25T01:04:46.542Z,21.16
2018-07-25T01:07:14.748Z,21.74
2018-07-25T01:09:42.976Z,21.98
2018-07-25T01:12:11.179Z,21.12
2018-07-25T01:14:39.399Z,20.40
2018-07-25T01:17:07.620Z,21.06
2018-07-25T01:19:35.063Z,21.24
2018-07-25T01:22:03.504Z,20.60
2018-07-25T01:24:31.711Z,21.04
2018-07-25T01:26:59.927Z,20.46
2018-07-25T01:29:28.150Z,20.70
2018-07-25T01:31:56.373Z,22.86
2018-07-25T01:34:24.596Z,21.30
2018-07-25T01:36:52.807Z,20.64
2018-07-25T01:39:20.264Z,19.88
2018-07-25T01:41:48.476Z,20.98
2018-07-25T01:44:16.694Z,20.86
2018-07-25T01:46:44.900Z,20.62
2018-07-25T01:49:13.126Z,21.30
2018-07-25T01:51:41.340Z,20.10
2018-07-25T01:54:09.551Z,20.94
2018-07-25T01:56:37.768Z,20.40
2018-07-25T01:59:05.231Z,21.12
2018-07-25T02:01:33.440Z,21.18
2018-07-25T02:04:01.659Z,21.92
2018-07-25T02:06:29.882Z,22.22
2018-07-25T02:08:58.104Z,21.12
2018-07-25T02:11:26.328Z,20.82
2018-07-25T02:13:54.549Z,21.80
2018-07-25T02:16:22.008Z,22.00
2018-07-25T02:18:50.229Z,22.00
2018-07-25T02:21:18.451Z,21.78
2018-07-25T02:23:46.668Z,21.26
2018-07-25T02:26:14.892Z,21.96
2018-07-25T02:28:43.117Z,20.48
2018-07-25T02:31:11.339Z,20.72
2018-07-25T02:33:39.567Z,22.74
2018-07-25T02:36:07.784Z,21.66
2018-07-25T02:38:36.001Z,21.34
2018-07-25T02:41:04.221Z,22.46
2018-07-25T02:43:32.441Z,22.96
2018-07-25T02:46:00.669Z,20.68
2018-07-25T02:48:28.865Z,22.18
2018-07-25T02:50:57.085Z,21.64
2018-07-25T02:53:25.305Z,22.08
2018-07-25T02:55:53.519Z,21.00
2018-07-25T02:58:21.736Z,22.42
2018-07-25T03:00:49.948Z,21.14
2018-07-25T03:03:18.155Z,22.06
2018-07-25T03:05:46.387Z,21.96
2018-07-25T03:08:14.596Z,22.90
2018-07-25T03:10:42.824Z,23.70
2018-07-25T03:13:11.037Z,22.48
2018-07-25T03:15:39.268Z,22.36
2018-07-25T03:18:06.728Z,23.30
2018-07-25T03:20:34.940Z,21.66
2018-07-25T03:23:03.152Z,22.08
2018-07-25T03:25:31.367Z,23.70
2018-07-25T03:27:59.575Z,22.00
2018-07-25T03:30:28.624Z,23.00
2018-07-25T03:32:56.839Z,21.18
2018-07-25T03:35:25.069Z,22.24
2018-07-25T03:37:53.284Z,22.08
2018-07-25T03:40:21.513Z,22.24
2018-07-25T03:42:49.720Z,21.82
2018-07-25T03:45:17.941Z,21.66
2018-07-25T03:47:46.165Z,21.90
2018-07-25T03:50:14.393Z,22.86
2018-07-25T03:52:42.607Z,25.38
2018-07-25T03:55:10.833Z,22.22
2018-07-25T03:57:39.044Z,22.74
2018-07-25T04:00:07.259Z,23.16
2018-07-25T04:02:35.532Z,25.30
2018-07-25T04:05:03.690Z,24.12
2018-07-25T04:07:31.912Z,22.04
2018-07-25T04:10:00.134Z,23.28
2018-07-25T04:12:28.352Z,23.12
2018-07-25T04:14:56.579Z,23.26
2018-07-25T04:17:24.800Z,21.94
2018-07-25T04:19:53.021Z,22.06
2018-07-25T04:22:21.236Z,22.00
2018-07-25T04:24:49.505Z,22.32
2018-07-25T04:27:17.676Z,21.26
2018-07-25T04:29:45.896Z,22.20
2018-07-25T04:32:14.116Z,22.72
2018-07-25T04:34:42.335Z,21.08
2018-07-25T04:37:10.556Z,23.12
2018-07-25T04:39:37.998Z,20.54
2018-07-25T04:42:06.220Z,22.80
2018-07-25T04:44:34.437Z,20.98
2018-07-25T04:47:02.653Z,21.80
2018-07-25T04:49:30.868Z,22.24
2018-07-25T04:51:59.089Z,22.94
2018-07-25T04:54:27.301Z,20.34
2018-07-25T04:56:55.527Z,20.54
2018-07-25T04:59:23.748Z,20.22
2018-07-25T05:01:51.968Z,20.26
2018-07-25T05:04:20.176Z,18.38
2018-07-25T05:06:48.404Z,22.54
2018-07-25T05:09:16.624Z,17.74
2018-07-25T05:11:44.857Z,17.72
2018-07-25T05:14:13.074Z,18.70
2018-07-25T05:16:41.304Z,16.86
2018-07-25T05:19:08.758Z,18.46
2018-07-25T05:21:36.974Z,17.40
2018-07-25T05:24:05.210Z,18.24
2018-07-25T05:26:33.425Z,18.44
2018-07-25T05:29:01.658Z,18.68
2018-07-25T05:31:29.877Z,18.26
2018-07-25T05:33:58.096Z,17.92
2018-07-25T05:36:26.311Z,17.70
2018-07-25T05:38:53.764Z,17.86
2018-07-25T05:41:21.983Z,18.68
2018-07-25T05:43:50.262Z,18.00
2018-07-25T05:46:18.444Z,18.60
2018-07-25T05:48:47.700Z,18.58
2018-07-25T05:51:15.913Z,18.66
2018-07-25T05:53:44.127Z,19.22
2018-07-25T05:56:12.344Z,18.68
2018-07-25T05:58:40.644Z,19.06
2018-07-25T06:01:08.783Z,19.56
2018-07-25T06:03:37.013Z,18.44
2018-07-25T06:06:05.276Z,19.78
2018-07-25T06:08:32.699Z,20.70
2018-07-25T06:11:00.892Z,20.48
2018-07-25T06:13:29.124Z,21.36
2018-07-25T06:15:57.334Z,19.36
2018-07-25T06:18:25.552Z,20.80
2018-07-25T06:20:53.762Z,20.52
2018-07-25T06:23:21.980Z,20.54
2018-07-25T06:25:50.190Z,20.56
2018-07-25T06:28:18.408Z,20.14
2018-07-25T06:30:46.620Z,20.50
2018-07-25T06:33:14.845Z,20.30
2018-07-25T06:35:43.048Z,19.38
2018-07-25T06:38:11.275Z,19.24
2018-07-25T06:40:39.492Z,19.92
2018-07-25T06:43:06.948Z,19.80
2018-07-25T06:45:35.164Z,21.70
2018-07-25T06:48:03.384Z,19.68
2018-07-25T06:50:31.603Z,19.26
2018-07-25T06:52:59.835Z,19.86
2018-07-25T06:55:28.048Z,20.26
2018-07-25T06:57:56.287Z,21.02
2018-07-25T07:00:24.487Z,18.64
2018-07-25T07:02:52.707Z,18.82
2018-07-25T07:05:20.960Z,19.38
2018-07-25T07:07:49.203Z,18.86
2018-07-25T07:10:17.413Z,18.38
2018-07-25T07:12:45.624Z,19.90
2018-07-25T07:15:13.876Z,18.70
2018-07-25T07:17:42.071Z,18.70
2018-07-25T07:20:10.271Z,18.78
2018-07-25T07:22:38.496Z,19.84
2018-07-25T07:25:06.715Z,21.60
2018-07-25T07:27:34.935Z,20.28
2018-07-25T07:30:03.148Z,19.42
2018-07-25T07:32:31.370Z,18.86
2018-07-25T07:34:59.635Z,19.98
2018-07-25T07:37:27.100Z,19.16
2018-07-25T07:39:55.264Z,17.04
2018-07-25T07:42:23.484Z,18.32
2018-07-25T07:44:51.699Z,19.92
2018-07-25T07:47:19.907Z,17.28
2018-07-25T07:49:48.129Z,17.92
2018-07-25T07:52:16.343Z,17.70
2018-07-25T07:54:44.565Z,17.70
2018-07-25T07:57:12.780Z,18.16
2018-07-25T07:59:41.004Z,15.88
2018-07-25T08:02:09.220Z,15.84
2018-07-25T08:04:36.671Z,16.08
2018-07-25T08:07:04.889Z,14.80
2018-07-25T08:09:33.125Z,14.68
2018-07-25T08:12:01.349Z,15.08
2018-07-25T08:14:29.572Z,14.82
2018-07-25T08:16:57.020Z,15.00
2018-07-25T08:19:25.253Z,14.70
2018-07-25T08:21:53.459Z,14.72
2018-07-25T08:24:21.689Z,14.80
2018-07-25T08:26:49.895Z,15.50
2018-07-25T08:29:18.119Z,15.34
2018-07-25T08:31:46.352Z,14.68
2018-07-25T08:34:14.580Z,15.20
2018-07-25T08:36:42.788Z,14.74
2018-07-25T08:39:11.004Z,15.88
2018-07-25T08:41:39.230Z,14.72
2018-07-25T08:44:07.453Z,14.42
2018-07-25T08:46:35.657Z,14.24
2018-07-25T08:49:03.885Z,14.60
2018-07-25T08:51:32.096Z,14.82
2018-07-25T08:54:00.312Z,15.02
2018-07-25T08:56:28.539Z,14.40
2018-07-25T08:58:55.992Z,13.82
2018-07-25T09:01:24.230Z,14.34
2018-07-25T09:03:52.444Z,14.22
2018-07-25T09:06:20.674Z,15.12
2018-07-25T09:08:48.897Z,14.86
2018-07-25T09:11:17.123Z,15.04
2018-07-25T09:13:45.331Z,15.08
2018-07-25T09:16:13.550Z,14.88
2018-07-25T09:18:41.772Z,13.56
2018-07-25T09:21:10.008Z,13.74
2018-07-25T09:23:38.581Z,15.02
2018-07-25T09:26:06.780Z,16.36
2018-07-25T09:28:35.013Z,15.30
2018-07-25T09:31:03.225Z,15.40
2018-07-25T09:33:31.441Z,16.36
2018-07-25T09:35:59.655Z,16.10
2018-07-25T09:38:27.861Z,15.42
2018-07-25T09:40:56.089Z,14.28
2018-07-25T09:43:24.289Z,16.02
2018-07-25T09:45:52.503Z,14.26
2018-07-25T09:48:20.742Z,15.08
2018-07-25T09:50:48.936Z,15.38
2018-07-25T09:53:17.141Z,15.64
2018-07-25T09:55:45.359Z,15.78
2018-07-25T09:58:13.571Z,15.58
2018-07-25T10:00:41.804Z,17.68
2018-07-25T10:03:10.019Z,16.16
2018-07-25T10:05:38.248Z,14.10
2018-07-25T10:08:06.449Z,15.62
2018-07-25T10:10:34.654Z,17.76
2018-07-25T10:13:02.112Z,15.94
2018-07-25T10:15:30.315Z,16.84
2018-07-25T10:17:58.532Z,18.48
2018-07-25T10:20:26.758Z,14.90
2018-07-25T10:22:54.962Z,13.02
2018-07-25T10:25:23.186Z,13.30
2018-07-25T10:27:51.388Z,13.30
2018-07-25T10:30:19.619Z,12.44
2018-07-25T10:32:47.858Z,14.80
2018-07-25T10:35:16.064Z,13.22
2018-07-25T10:37:44.300Z,13.00
2018-07-25T10:40:12.487Z,13.12
2018-07-25T10:42:40.740Z,13.22
2018-07-25T10:45:08.919Z,12.92
2018-07-25T10:47:37.134Z,12.82
2018-07-25T10:50:05.353Z,12.42
2018-07-25T10:52:33.572Z,11.54
2018-07-25T10:55:01.797Z,12.18
2018-07-25T10:57:30.006Z,12.10
2018-07-25T10:59:58.220Z,11.24
2018-07-25T11:02:26.448Z,12.38
2018-07-25T11:04:53.901Z,11.24
2018-07-25T11:07:22.483Z,10.42
2018-07-25T11:09:50.708Z,12.22
2018-07-25T11:12:18.915Z,12.54
2018-07-25T11:14:47.137Z,11.66
2018-07-25T11:17:15.351Z,11.82
2018-07-25T11:19:43.599Z,10.96
2018-07-25T11:22:11.814Z,11.80
2018-07-25T11:24:40.037Z,12.26
2018-07-25T11:27:08.244Z,13.32
2018-07-25T11:29:36.471Z,13.06
2018-07-25T11:32:04.683Z,13.12
2018-07-25T11:34:32.913Z,12.92
2018-07-25T11:37:01.648Z,12.30
2018-07-25T11:39:29.863Z,12.00
2018-07-25T11:41:58.082Z,12.52
2018-07-25T11:44:26.295Z,11.72
2018-07-25T11:46:53.743Z,11.00
2018-07-25T11:49:21.960Z,12.22
2018-07-25T11:51:50.179Z,11.72
2018-07-25T11:54:18.394Z,12.34
2018-07-25T11:56:46.603Z,12.60
2018-07-25T11:59:14.816Z,12.60
2018-07-25T12:01:43.051Z,12.68
2018-07-25T12:04:11.251Z,13.14
2018-07-25T12:06:39.497Z,13.58
2018-07-25T12:09:07.678Z,14.22
2018-07-25T12:11:35.890Z,12.92
2018-07-25T12:14:04.117Z,12.44
2018-07-25T12:16:32.330Z,14.10
2018-07-25T12:19:00.547Z,12.64
2018-07-25T12:21:28.764Z,13.60
2018-07-25T12:23:56.971Z,13.70
2018-07-25T12:26:25.194Z,12.54
2018-07-25T12:28:53.391Z,12.74
2018-07-25T12:31:22.621Z,13.28
2018-07-25T12:33:50.826Z,13.42
2018-07-25T12:36:19.050Z,12.02
2018-07-25T12:38:47.269Z,12.48
2018-07-25T12:41:15.483Z,13.08
2018-07-25T12:43:43.698Z,12.74
2018-07-25T12:46:11.159Z,13.52
2018-07-25T12:48:39.367Z,12.00
2018-07-25T12:51:07.579Z,12.42
2018-07-25T12:53:35.020Z,12.22
2018-07-25T12:56:03.269Z,12.60
2018-07-25T12:58:31.486Z,13.50
2018-07-25T13:00:59.711Z,11.70
2018-07-25T13:03:27.936Z,11.82
2018-07-25T13:05:56.160Z,12.20
2018-07-25T13:08:24.423Z,11.74
2018-07-25T13:10:52.655Z,12.44
2018-07-25T13:13:20.871Z,12.22
2018-07-25T13:15:49.091Z,13.30
2018-07-25T13:18:17.292Z,11.90
2018-07-25T13:20:45.527Z,12.38
2018-07-25T13:23:13.815Z,12.80
2018-07-25T13:25:42.032Z,12.20
2018-07-25T13:28:09.486Z,11.40
2018-07-25T13:30:37.700Z,11.80
2018-07-25T13:33:05.151Z,11.52
2018-07-25T13:35:33.359Z,12.72
2018-07-25T13:38:01.576Z,12.22
2018-07-25T13:40:29.794Z,12.70
2018-07-25T13:42:58.049Z,12.28
2018-07-25T13:45:26.259Z,10.86
2018-07-25T13:47:54.439Z,11.30
2018-07-25T13:50:22.659Z,12.28
2018-07-25T13:52:50.875Z,12.42
2018-07-25T13:55:19.095Z,11.94
2018-07-25T13:57:47.306Z,12.54
2018-07-25T14:00:15.516Z,11.96
2018-07-25T14:02:43.735Z,12.20
2018-07-25T14:05:11.947Z,12.90
2018-07-25T14:07:40.159Z,11.80
2018-07-25T14:10:08.372Z,12.14
2018-07-25T14:12:36.589Z,12.50
2018-07-25T14:15:04.803Z,12.02
2018-07-25T14:17:33.019Z,12.12
2018-07-25T14:20:01.224Z,12.28
2018-07-25T14:22:29.444Z,11.86
2018-07-25T14:24:57.643Z,11.28
2018-07-25T14:27:25.869Z,11.80
2018-07-25T14:29:54.080Z,11.66
2018-07-25T14:32:22.303Z,11.36
2018-07-25T14:34:50.544Z,11.64
2018-07-25T14:37:18.737Z,11.98
2018-07-25T14:39:47.038Z,12.24
2018-07-25T14:42:15.177Z,12.12
2018-07-25T14:44:43.384Z,12.64
2018-07-25T14:47:11.670Z,11.92
2018-07-25T14:49:39.811Z,12.40
2018-07-25T14:52:08.035Z,12.02
2018-07-25T14:54:36.242Z,11.80
2018-07-25T14:57:04.460Z,11.68
2018-07-25T14:59:32.671Z,11.72
2018-07-25T15:02:00.883Z,12.52
2018-07-25T15:04:29.091Z,11.94
2018-07-25T15:06:57.316Z,11.00
2018-07-25T15:09:25.529Z,11.28
2018-07-25T15:11:53.742Z,12.16
2018-07-25T15:14:21.200Z,11.34
2018-07-25T15:16:49.415Z,11.42
2018-07-25T15:19:18.552Z,11.20
2018-07-25T15:21:50.216Z,12.74
2018-07-25T15:24:18.438Z,11.46
2018-07-25T15:26:46.647Z,11.08
2018-07-25T15:29:14.864Z,11.02
2018-07-25T15:31:43.082Z,11.72
2018-07-25T15:34:11.298Z,12.72
2018-07-25T15:36:39.515Z,11.64
2018-07-25T15:39:06.963Z,12.34
2018-07-25T15:41:35.171Z,11.98
2018-07-25T15:44:03.412Z,10.84
2018-07-25T15:46:31.633Z,11.66
2018-07-25T15:48:59.855Z,12.36
2018-07-25T15:51:28.060Z,12.00
2018-07-25T15:53:56.270Z,11.70
2018-07-25T15:56:24.479Z,11.52
2018-07-25T15:58:52.702Z,10.66
2018-07-25T16:01:20.911Z,11.32
2018-07-25T16:03:49.133Z,10.94
2018-07-25T16:06:17.348Z,11.40
2018-07-25T16:08:45.577Z,12.32
2018-07-25T16:11:13.791Z,11.10
2018-07-25T16:13:42.011Z,11.62
2018-07-25T16:16:10.226Z,12.28
2018-07-25T16:18:38.441Z,10.88
2018-07-25T16:21:06.660Z,11.56
2018-07-25T16:23:34.876Z,11.86
2018-07-25T16:26:03.091Z,11.42
2018-07-25T16:28:31.311Z,12.22
2018-07-25T16:30:59.525Z,11.98
2018-07-25T16:33:27.738Z,11.88
2018-07-25T16:35:55.943Z,11.78
2018-07-25T16:38:24.164Z,12.68
2018-07-25T16:40:52.379Z,11.40
2018-07-25T16:43:20.601Z,11.68
2018-07-25T16:45:48.813Z,10.78
2018-07-25T16:48:17.032Z,10.92
2018-07-25T16:50:45.239Z,10.54
2018-07-25T16:53:13.456Z,11.02
2018-07-25T16:55:40.954Z,9.86
2018-07-25T16:58:09.184Z,10.12
2018-07-25T17:00:37.391Z,10.70
2018-07-25T17:03:05.632Z,11.36
2018-07-25T17:05:33.836Z,10.74
2018-07-25T17:08:02.051Z,12.54
2018-07-25T17:10:30.251Z,9.72
2018-07-25T17:12:58.477Z,10.32
2018-07-25T17:15:26.691Z,10.42
2018-07-25T17:17:54.898Z,10.16
2018-07-25T17:20:23.122Z,10.74
2018-07-25T17:22:51.328Z,10.46
2018-07-25T17:25:19.539Z,10.22
2018-07-25T17:27:47.772Z,11.40
2018-07-25T17:30:15.962Z,9.78
2018-07-25T17:32:44.171Z,10.24
2018-07-25T17:35:12.398Z,10.12
2018-07-25T17:37:40.596Z,10.26
2018-07-25T17:40:08.816Z,10.46
2018-07-25T17:42:37.012Z,9.90
2018-07-25T17:45:05.230Z,10.04
2018-07-25T17:47:33.436Z,10.20
2018-07-25T17:50:00.879Z,9.74
2018-07-25T17:52:29.086Z,11.42
2018-07-25T17:54:57.321Z,11.30
2018-07-25T17:57:25.541Z,10.86
2018-07-25T17:59:53.755Z,10.94
2018-07-25T18:02:21.970Z,10.06
2018-07-25T18:04:50.179Z,9.82
2018-07-25T18:07:18.393Z,10.16
2018-07-25T18:09:45.822Z,9.36
2018-07-25T18:12:14.042Z,11.16
2018-07-25T18:14:42.251Z,10.00
2018-07-25T18:17:10.505Z,10.46
2018-07-25T18:19:37.919Z,10.10
2018-07-25T18:22:07.147Z,9.88
2018-07-25T18:24:35.472Z,10.28
2018-07-25T18:27:03.691Z,10.18
2018-07-25T18:29:31.183Z,10.94
2018-07-25T18:31:59.409Z,11.78
2018-07-25T18:34:27.626Z,11.90
2018-07-25T18:36:55.831Z,10.72
2018-07-25T18:39:24.048Z,10.48
2018-07-25T18:41:52.259Z,10.56
2018-07-25T18:44:20.476Z,9.48
2018-07-25T18:46:48.686Z,10.60
2018-07-25T18:49:16.135Z,10.18
2018-07-25T18:51:44.356Z,11.12
2018-07-25T18:54:12.591Z,11.24
2018-07-25T18:56:40.803Z,10.76
2018-07-25T18:59:09.015Z,10.34
2018-07-25T19:01:37.243Z,10.96
2018-07-25T19:04:05.452Z,10.98
2018-07-25T19:06:33.668Z,10.72
2018-07-25T19:09:01.111Z,11.22
2018-07-25T19:11:29.343Z,12.26
2018-07-25T19:13:57.551Z,11.72
2018-07-25T19:16:25.764Z,11.36
2018-07-25T19:18:53.980Z,11.82
2018-07-25T19:21:22.191Z,10.22
2018-07-25T19:23:50.457Z,12.38
2018-07-25T19:26:18.623Z,10.60
2018-07-25T19:28:46.059Z,11.40
2018-07-25T19:31:14.267Z,10.84
2018-07-25T19:33:42.487Z,12.34
2018-07-25T19:36:10.718Z,12.80
2018-07-25T19:38:38.934Z,13.00
2018-07-25T19:41:07.155Z,12.20
2018-07-25T19:43:35.372Z,12.38
2018-07-25T19:46:03.631Z,11.56
2018-07-25T19:48:31.839Z,11.96
2018-07-25T19:51:00.066Z,11.68
2018-07-25T19:53:28.271Z,12.74
2018-07-25T19:55:56.479Z,11.90
2018-07-25T19:58:24.692Z,12.00
2018-07-25T20:00:52.922Z,12.98
2018-07-25T20:03:21.122Z,12.34
2018-07-25T20:05:49.334Z,12.50
2018-07-25T20:08:17.540Z,11.54
2018-07-25T20:10:45.760Z,13.14
2018-07-25T20:13:13.976Z,12.80
2018-07-25T20:16:00.063Z,12.04
2018-07-25T20:18:28.289Z,14.02
2018-07-25T20:20:56.572Z,13.16
2018-07-25T20:23:24.862Z,13.62
2018-07-25T20:25:53.096Z,12.74
2018-07-25T20:28:21.291Z,13.30
2018-07-25T20:30:49.520Z,13.48
2018-07-25T20:33:17.723Z,13.54
2018-07-25T20:35:45.955Z,13.50
2018-07-25T20:38:13.378Z,15.48
2018-07-25T20:40:41.600Z,13.34
2018-07-25T20:43:09.813Z,13.96
2018-07-25T20:45:38.045Z,14.48
2018-07-25T20:48:05.521Z,13.10
2018-07-25T20:50:33.727Z,14.40
2018-07-25T20:53:01.931Z,15.46
2018-07-25T20:55:29.396Z,15.04
2018-07-25T20:57:57.588Z,14.94
2018-07-25T21:00:25.973Z,14.48
2018-07-25T21:02:54.072Z,15.24
2018-07-25T21:05:22.289Z,14.82
2018-07-25T21:07:50.503Z,14.34
2018-07-25T21:10:18.707Z,14.70
2018-07-25T21:12:46.928Z,13.62
2018-07-25T21:15:15.172Z,14.54
2018-07-25T21:17:43.395Z,14.06
2018-07-25T21:20:11.626Z,14.82
2018-07-25T21:22:39.840Z,14.10
2018-07-25T21:25:08.050Z,14.56
2018-07-25T21:27:35.504Z,15.62
2018-07-25T21:30:03.987Z,14.82
2018-07-25T21:32:32.215Z,14.70
2018-07-25T21:35:00.415Z,15.22
2018-07-25T21:37:28.636Z,14.50
2018-07-25T21:39:56.846Z,14.60
2018-07-25T21:42:25.069Z,15.68
2018-07-25T21:44:53.278Z,14.88
2018-07-25T21:47:21.483Z,16.32
2018-07-25T21:49:49.702Z,14.24
2018-07-25T21:52:17.918Z,15.08
2018-07-25T21:54:46.126Z,15.36
2018-07-25T21:57:14.352Z,14.76
2018-07-25T21:59:41.796Z,15.52
2018-07-25T22:02:10.004Z,15.56
2018-07-25T22:04:38.213Z,14.72
2018-07-25T22:07:06.444Z,14.86
2018-07-25T22:09:34.649Z,15.88
2018-07-25T22:12:02.871Z,16.08
2018-07-25T22:14:31.083Z,15.92
2018-07-25T22:16:59.307Z,14.64
2018-07-25T22:19:27.512Z,16.42
2018-07-25T22:21:55.731Z,13.76
2018-07-25T22:24:23.947Z,16.32
2018-07-25T22:26:52.167Z,15.52
2018-07-25T22:29:20.446Z,14.54
2018-07-25T22:31:48.656Z,15.30
2018-07-25T22:34:16.871Z,14.20
2018-07-25T22:36:45.088Z,15.90
2018-07-25T22:39:13.304Z,15.00
2018-07-25T22:41:41.520Z,14.58
2018-07-25T22:44:09.744Z,15.88
2018-07-25T22:46:37.959Z,15.50
2018-07-25T22:49:06.171Z,15.84
2018-07-25T22:51:34.396Z,15.86
2018-07-25T22:54:02.595Z,16.78
2018-07-25T22:56:30.823Z,16.70
2018-07-25T22:58:59.059Z,16.50
2018-07-25T23:01:27.267Z,16.98
2018-07-25T23:03:55.486Z,17.28
2018-07-25T23:06:23.696Z,17.28
2018-07-25T23:08:51.911Z,16.46
2018-07-25T23:11:20.114Z,16.28
2018-07-25T23:13:48.338Z,16.58
2018-07-25T23:16:16.552Z,15.96
2018-07-25T23:18:44.774Z,16.02
2018-07-25T23:21:12.984Z,16.38
2018-07-25T23:23:41.202Z,14.96
2018-07-25T23:26:09.419Z,17.44
2018-07-25T23:28:37.651Z,16.26
2018-07-25T23:31:05.864Z,15.54
2018-07-25T23:33:34.084Z,16.44
2018-07-25T23:36:02.298Z,15.56
2018-07-25T23:38:30.515Z,15.24
2018-07-25T23:40:58.729Z,15.88
2018-07-25T23:43:26.942Z,15.14
2018-07-25T23:45:55.142Z,16.04
2018-07-25T23:48:23.354Z,16.22
2018-07-25T23:50:51.562Z,16.62
2018-07-25T23:53:19.774Z,16.52
2018-07-25T23:55:47.992Z,17.00
2018-07-25T23:58:16.209Z,16.48
